DW6667 Weather Reports


Display with metric or nautical units.
time (UTC)temp
F
wind
direction
speed
MPH
gust
MPH
rain 1hr
in
rain 24hr
in
rain mn
in
humidity
%
barometer
mb
20240530013222 54 323 4.0 7.0 0.00 0.06 0.05 48 1020.2
20240530012218 55 263 3.0 4.0 0.00 0.06 0.05 50 1020.2
20240530011215 55 251 2.0 3.0 0.00 0.06 0.05 49 1019.9
20240530010229 55 253 2.0 7.0 0.00 0.06 0.05 49 1019.9
20240530005232 56 295 2.0 3.0 0.00 0.06 0.05 47 1019.9
20240530004217 56 282 2.0 3.0 0.00 0.06 0.05 48 1019.7
20240530003219 57 338 13.0 14.0 0.00 0.06 0.05 46 1019.5
20240530002222 58 254 4.0 6.0 0.00 0.06 0.05 47 1019.4
20240530001225 56 326 2.0 2.0 0.00 0.06 0.05 49 1019.4
20240530000249 56 305 5.0 9.0 0.00 0.06 0.05 48 1019.4
20240529235229 56 302 1.0 2.0 0.00 0.06 0.05 51 1019.3
20240529234232 56 281 2.0 3.0 0.00 0.06 0.05 49 1019.2
20240529233217 56 278 1.0 3.0 0.00 0.06 0.05 50 1018.9
20240529232220 55 268 4.0 5.0 0.00 0.06 0.05 50 1018.8
20240529231222 56 306 8.0 13.0 0.00 0.06 0.05 50 1018.7
20240529230224 57 324 4.0 7.0 0.00 0.06 0.05 52 1018.7
20240529225227 57 300 8.0 11.0 0.00 0.06 0.05 50 1018.2
20240529224224 58 274 1.0 2.0 0.00 0.06 0.05 51 1018.2
20240529223220 59 301 6.0 9.0 0.00 0.06 0.05 49 1018.2
20240529222216 61 292 4.0 5.0 0.00 0.06 0.05 51 1018.2
20240529221219 60 295 4.0 7.0 0.00 0.06 0.05 51 1018.0
20240529220222 60 233 2.0 3.0 0.00 0.06 0.05 54 1018.0
20240529215224 57 305 5.0 7.0 0.00 0.06 0.05 61 1018.4
20240529214227 55 337 3.0 5.0 0.00 0.06 0.05 58 1018.5
20240529213229 55 180 4.0 7.0 0.00 0.06 0.05 60 1018.5
20240529212232 55 323 0.0 1.0 0.00 0.06 0.05 63 1018.4
20240529211216 55 0.0 0.0 0.00 0.06 0.05 64 1018.4
20240529210219 56 255 1.0 4.0 0.00 0.06 0.05 61 1018.4
20240529205221 58 266 1.0 2.0 0.00 0.06 0.05 61 1018.5
20240529204223 60 300 3.0 6.0 0.00 0.06 0.05 61 1018.6
20240529203226 55 314 1.0 3.0 0.00 0.06 0.05 63 1018.7
20240529202229 55 341 3.0 5.0 0.00 0.06 0.05 64 1018.9
20240529201252 55 345 3.0 7.0 0.00 0.06 0.05 64 1019.2
20240529200236 54 314 6.0 9.0 0.00 0.06 0.05 64 1019.2
20240529195218 55 317 4.0 7.0 0.00 0.06 0.05 64 1019.3
20240529194221 56 356 2.0 4.0 0.00 0.06 0.05 62 1019.1
20240529193217 57 320 5.0 7.0 0.00 0.06 0.05 62 1018.9
20240529192226 57 291 5.0 8.0 0.00 0.06 0.05 63 1018.8
20240529191228 57 312 7.0 10.0 0.00 0.06 0.05 63 1018.4
20240529190251 58 328 10.0 12.0 0.00 0.06 0.05 61 1018.4
20240529185215 58 306 4.0 5.0 0.00 0.06 0.05 65 1018.5
20240529184217 56 321 6.0 10.0 0.00 0.06 0.05 67 1018.6
20240529183220 56 305 5.0 7.0 0.00 0.06 0.05 67 1018.6
20240529182223 57 299 7.0 9.0 0.00 0.06 0.05 67 1018.7
20240529181225 55 331 5.0 9.0 0.00 0.06 0.05 69 1018.6
20240529180248 56 337 10.0 13.0 0.00 0.06 0.05 68 1018.6
20240529175230 59 304 1.0 5.0 0.00 0.06 0.05 61 1018.4
20240529174233 56 167 2.0 3.0 0.00 0.06 0.05 70 1018.5
20240529173217 55 344 3.0 6.0 0.00 0.06 0.05 68 1018.6
20240529172219 56 326 6.0 8.0 0.00 0.06 0.05 66 1018.6
20240529171243 57 323 5.0 7.0 0.00 0.06 0.05 67 1018.7
20240529170225 59 315 3.0 6.0 0.00 0.06 0.05 68 1018.7
20240529165221 58 207 3.0 4.0 0.00 0.06 0.05 66 1018.7
20240529164218 56 221 2.0 2.0 0.00 0.06 0.05 69 1018.8
20240529163232 55 85 2.0 3.0 0.00 0.06 0.05 74 1018.9
20240529162217 53 210 1.0 3.0 0.00 0.06 0.05 77 1018.8
20240529161239 54 0.0 0.0 0.00 0.06 0.05 76 1018.9
20240529160222 53 0.0 0.0 0.00 0.06 0.05 79 1018.9
20240529155225 53 0.0 0.0 0.00 0.06 0.05 79 1018.9
20240529154227 53 0.0 0.0 0.00 0.06 0.05 80 1019.1
20240529153229 52 316 5.0 6.0 0.00 0.06 0.05 80 1019.1
20240529152232 54 337 5.0 6.0 0.00 0.06 0.05 77 1018.8
20240529151216 56 331 3.0 5.0 0.00 0.06 0.05 76 1019.1
20240529150219 54 41 1.0 3.0 0.00 0.06 0.05 74 1019.1
20240529145222 55 181 3.0 4.0 0.00 0.06 0.05 75 1018.9
20240529144224 53 210 2.0 3.0 0.00 0.06 0.05 78 1019.1
20240529143226 52 0.0 1.0 0.00 0.06 0.05 83 1018.9
20240529142229 52 0.0 2.0 0.00 0.06 0.05 83 1018.8
20240529141245 52 52 4.0 5.0 0.00 0.06 0.05 80 1018.9
20240529140216 51 66 2.0 3.0 0.00 0.06 0.05 86 1018.9
20240529135219 50 49 2.0 3.0 0.00 0.06 0.05 94 1018.9
20240529134215 50 0.0 0.0 0.00 0.06 0.05 93 1018.7
20240529133224 49 0.0 0.0 0.00 0.06 0.05 92 1018.4
20240529132226 49 323 0.0 2.0 0.00 0.06 0.05 91 1018.6
20240529131229 49 0.0 1.0 0.00 0.06 0.05 95 1018.6
20240529130232 49 210 0.0 2.0 0.00 0.06 0.05 95 1018.6
20240529125236 50 255 3.0 4.0 0.00 0.06 0.05 92 1018.6
20240529124259 49 240 1.0 2.0 0.00 0.06 0.05 88 1018.4
20240529123221 49 0.0 1.0 0.00 0.06 0.05 86 1018.7
20240529122224 49 245 2.0 4.0 0.00 0.06 0.05 85 1018.6
20240529121226 49 337 2.0 3.0 0.00 0.06 0.05 88 1018.4
20240529120228 50 165 2.0 3.0 0.00 0.06 0.05 85 1018.4
20240529115231 49 278 0.0 2.0 0.00 0.06 0.05 91 1018.4
20240529114216 49 255 1.0 2.0 0.00 0.06 0.05 91 1018.0
20240529113219 49 289 1.0 2.0 0.00 0.06 0.05 92 1018.6
20240529112221 50 0.0 0.0 0.01 0.06 0.05 94 1018.2
20240529111224 50 0.0 0.0 0.01 0.06 0.05 91 1018.5
20240529110220 50 0.0 1.0 0.01 0.06 0.05 92 1018.5
20240529105217 51 289 1.0 2.0 0.01 0.06 0.05 92 1018.0
20240529104231 50 323 4.0 7.0 0.01 0.06 0.05 95 1017.6
20240529103215 51 255 1.0 3.0 0.01 0.06 0.05 95 1017.9
20240529102218 51 0.0 0.0 0.00 0.05 0.04 98 1017.4
20240529101221 51 274 3.0 5.0 0.01 0.05 0.04 99 1017.1
20240529100224 51 71 3.0 5.0 0.02 0.05 0.04 99 1017.1
20240529095226 51 30 0.0 1.0 0.03 0.05 0.04 99 1016.8
20240529094228 52 318 2.0 3.0 0.04 0.05 0.04 99 1016.2
20240529093252 52 30 1.0 2.0 0.04 0.05 0.04 99 1016.9
20240529092216 53 0.0 2.0 0.04 0.05 0.04 99 1017.0
20240529091218 53 0.0 0.0 0.03 0.04 0.03 98 1016.9
20240529090221 53 0.0 0.0 0.02 0.03 0.02 96 1016.9
20240529085223 54 233 5.0 8.0 0.01 0.02 0.01 92 1016.6
20240529084226 54 255 1.0 3.0 0.00 0.01 0.00 90 1016.1
20240529083228 55 0.0 0.0 0.00 0.01 0.00 86 1015.3
20240529082225 55 311 1.0 2.0 0.00 0.01 0.00 86 1015.3
20240529081215 55 233 1.0 2.0 0.00 0.01 0.00 84 1015.1
20240529080218 55 0.0 0.0 0.00 0.01 0.00 83 1015.1
20240529075221 55 0.0 0.0 0.00 0.01 0.00 82 1015.1
20240529074223 55 0.0 0.0 0.00 0.01 0.00 81 1015.1
20240529073226 56 279 2.0 2.0 0.00 0.01 0.00 81 1014.9
20240529072229 56 284 2.0 2.0 0.00 0.01 0.00 81 1014.9
20240529071251 55 278 3.0 4.0 0.00 0.01 0.00 82 1015.1
20240529070216 56 248 2.0 3.0 0.00 0.01 0.00 84 1015.1
20240529065218 56 246 2.0 3.0 0.00 0.01 0.00 83 1015.1
20240529064221 57 198 3.0 4.0 0.00 0.01 0.00 82 1015.3
20240529063223 54 255 1.0 3.0 0.01 0.01 0.00 93 1015.5
20240529062226 55 240 3.0 4.0 0.01 0.01 0.00 89 1015.7
20240529061229 55 300 1.0 3.0 0.01 0.01 0.00 88 1015.7
20240529060231 54 244 3.0 3.0 0.01 0.01 0.00 90 1015.7
20240529055215 54 313 3.0 5.0 0.01 0.01 0.01 93 1015.7
20240529054218 56 225 2.0 2.0 0.01 0.01 0.01 86 1016.5
20240529053221 57 233 4.0 5.0 0.00 0.00 0.00 82 1016.5
20240529052223 55 233 6.0 9.0 0.00 0.00 0.00 86 1016.3
20240529051220 54 0.0 0.0 0.00 0.00 0.00 92 1016.3
20240529050216 54 210 0.0 2.0 0.00 0.00 0.00 91 1016.3
20240529045251 54 268 1.0 2.0 0.00 0.00 0.00 92 1016.3
20240529044215 55 233 5.0 6.0 0.00 0.00 0.00 92 1016.2
20240529043218 55 227 4.0 5.0 0.00 0.00 0.00 91 1016.2
20240529042220 56 0.0 0.0 0.00 0.00 0.00 87 1016.8
20240529041223 56 269 2.0 3.0 0.00 0.00 0.00 85 1017.0
20240529040226 57 50 2.0 4.0 0.00 0.00 0.00 81 1017.0
20240529035229 60 340 1.0 2.0 0.00 0.00 0.00 74 1018.0
20240529034336 63 238 8.0 12.0 0.00 0.00 0.00 60 1018.2
20240529033328 63 233 13.0 18.0 0.00 0.00 0.00 56 1017.2
20240529031441 61 278 1.0 2.0 0.00 0.00 0.00 63 1016.6
20240529023443 64 0.0 0.0 0.00 0.00 0.00 59 1016.6
20240529021943 65 0.0 1.0 0.00 0.00 0.00 54 1016.9